Time;durP1;ratioP1;P1;durP2;ratioP2;P2;SDS_P1;SDS_P2;PMS_P1;PMS_P2;Temp;Humidity;BMP_temperature;BMP_pressure;BME280_temperature;BME280_humidity;BME280_pressure;Samples;Min_cycle;Max_cycle;Signal;HPM_P1;HPM_P2
2022/02/26 00:00:09;;;;;;;9.07;3.35;;;;;;;;;;4882437;29;20047;-92
2022/02/26 00:02:35;;;;;;;10.48;3.10;;;;;;;;;;4878994;29;20092;-92
2022/02/26 00:05:00;;;;;;;10.55;3.70;;;;;;;;;;4881618;29;20032;-91
2022/02/26 00:07:25;;;;;;;8.55;3.05;;;;;;;;;;4882227;29;20040;-91
2022/02/26 00:09:51;;;;;;;15.65;3.92;;;;;;;;;;4877506;29;20029;-90
2022/02/26 00:12:16;;;;;;;9.90;3.25;;;;;;;;;;4876357;29;20039;-92
2022/02/26 00:14:41;;;;;;;12.68;3.38;;;;;;;;;;4879617;29;20443;-85
2022/02/26 00:17:07;;;;;;;12.32;3.50;;;;;;;;;;4882417;29;20039;-92
2022/02/26 00:19:33;;;;;;;13.93;3.20;;;;;;;;;;4882360;29;20039;-84
2022/02/26 00:21:59;;;;;;;11.73;3.50;;;;;;;;;;4882089;29;20024;-85
2022/02/26 00:24:25;;;;;;;12.27;2.90;;;;;;;;;;4899528;29;20037;-93
2022/02/26 00:26:50;;;;;;;10.40;3.13;;;;;;;;;;4877851;29;20048;-84
2022/02/26 00:29:16;;;;;;;11.60;3.35;;;;;;;;;;4874798;29;20040;-84
2022/02/26 00:31:42;;;;;;;12.38;3.25;;;;;;;;;;4874732;29;20039;-84
2022/02/26 00:34:07;;;;;;;11.85;3.53;;;;;;;;;;4881196;29;20105;-92
2022/02/26 00:36:32;;;;;;;8.95;3.10;;;;;;;;;;4878004;29;20029;-84
2022/02/26 00:38:58;;;;;;;7.15;3.20;;;;;;;;;;4878334;29;20037;-84
2022/02/26 00:41:25;;;;;;;10.20;3.47;;;;;;;;;;4878728;29;20025;-84
2022/02/26 00:43:52;;;;;;;11.93;3.45;;;;;;;;;;4885084;29;20071;-85
2022/02/26 00:46:17;;;;;;;9.10;3.15;;;;;;;;;;4887353;29;20048;-85
2022/02/26 00:51:26;;;;;;;14.50;3.80;;;;;;;;;;4880716;29;20097;-91
2022/02/26 00:53:52;;;;;;;13.68;3.05;;;;;;;;;;4877785;29;20037;-91
2022/02/26 00:56:17;;;;;;;11.63;3.55;;;;;;;;;;4873608;29;20024;-92
2022/02/26 00:58:42;;;;;;;10.73;3.42;;;;;;;;;;4872376;29;20474;-92
2022/02/26 01:01:08;;;;;;;8.25;3.53;;;;;;;;;;4886407;29;20025;-92
2022/02/26 01:03:33;;;;;;;9.90;3.03;;;;;;;;;;4882973;29;20643;-84
2022/02/26 01:05:58;;;;;;;13.02;3.25;;;;;;;;;;4880151;29;20371;-86
2022/02/26 01:08:24;;;;;;;12.68;3.15;;;;;;;;;;4879610;29;20035;-86
2022/02/26 01:10:49;;;;;;;8.63;3.15;;;;;;;;;;4879819;29;20832;-84
2022/02/26 01:13:15;;;;;;;11.25;3.58;;;;;;;;;;4871807;29;20120;-85
2022/02/26 01:15:40;;;;;;;9.52;3.50;;;;;;;;;;4879492;29;20029;-89
2022/02/26 01:18:06;;;;;;;10.45;3.42;;;;;;;;;;4871824;29;20550;-86
2022/02/26 01:20:31;;;;;;;10.38;3.60;;;;;;;;;;4889080;29;20029;-85
2022/02/26 01:22:57;;;;;;;12.82;3.25;;;;;;;;;;4879643;29;20551;-85
2022/02/26 01:25:22;;;;;;;11.18;3.80;;;;;;;;;;4886650;29;20047;-90
2022/02/26 01:27:48;;;;;;;9.30;3.67;;;;;;;;;;4881788;29;20449;-91
2022/02/26 01:30:13;;;;;;;10.55;3.17;;;;;;;;;;4878601;29;20681;-93
2022/02/26 01:32:41;;;;;;;13.35;3.97;;;;;;;;;;4880260;29;20059;-84
2022/02/26 01:35:07;;;;;;;13.18;3.60;;;;;;;;;;4879443;29;20053;-93
2022/02/26 01:37:32;;;;;;;11.25;3.17;;;;;;;;;;4877921;29;20448;-84
2022/02/26 01:39:58;;;;;;;9.40;3.70;;;;;;;;;;4884546;29;20037;-84
2022/02/26 01:42:23;;;;;;;9.90;3.35;;;;;;;;;;4878822;29;20032;-93
2022/02/26 01:44:51;;;;;;;10.77;3.40;;;;;;;;;;4877682;29;20033;-90
2022/02/26 01:47:17;;;;;;;9.63;3.33;;;;;;;;;;4877410;29;20930;-91
2022/02/26 01:49:43;;;;;;;10.85;3.83;;;;;;;;;;4877581;29;20045;-94
2022/02/26 01:52:09;;;;;;;9.85;3.75;;;;;;;;;;4883418;29;20089;-84
2022/02/26 01:54:35;;;;;;;11.93;3.88;;;;;;;;;;4881680;29;20052;-85
2022/02/26 01:57:00;;;;;;;9.48;3.35;;;;;;;;;;4881284;29;20029;-94
2022/02/26 01:59:26;;;;;;;12.73;3.70;;;;;;;;;;4877135;29;20058;-89
2022/02/26 02:01:51;;;;;;;12.15;3.83;;;;;;;;;;4886041;29;20616;-85
2022/02/26 02:04:18;;;;;;;13.25;4.00;;;;;;;;;;4869641;29;20041;-90
2022/02/26 02:06:43;;;;;;;13.90;4.03;;;;;;;;;;4878682;29;20056;-86
2022/02/26 02:09:10;;;;;;;11.25;4.40;;;;;;;;;;4878254;29;20072;-84
2022/02/26 02:11:35;;;;;;;11.45;4.45;;;;;;;;;;4879035;29;20043;-93
2022/02/26 02:14:01;;;;;;;11.98;4.07;;;;;;;;;;4879168;29;20033;-84
2022/02/26 02:16:28;;;;;;;11.07;4.15;;;;;;;;;;4881295;29;20021;-84
2022/02/26 02:18:53;;;;;;;13.70;5.00;;;;;;;;;;4873593;29;20100;-84
2022/02/26 02:21:19;;;;;;;14.13;4.60;;;;;;;;;;4878289;29;20119;-92
2022/02/26 02:23:45;;;;;;;12.88;4.60;;;;;;;;;;4876825;29;20043;-85
2022/02/26 02:26:11;;;;;;;11.35;4.85;;;;;;;;;;4875164;29;20029;-94
2022/02/26 02:28:37;;;;;;;12.75;4.57;;;;;;;;;;4876889;29;20060;-84
2022/02/26 02:31:02;;;;;;;11.73;4.65;;;;;;;;;;4871571;29;20574;-92
2022/02/26 02:33:28;;;;;;;11.85;4.20;;;;;;;;;;4876900;29;20037;-90
2022/02/26 02:35:53;;;;;;;14.48;4.65;;;;;;;;;;4874328;29;21717;-91
2022/02/26 02:38:19;;;;;;;12.45;4.40;;;;;;;;;;4876571;29;20108;-91
2022/02/26 02:40:46;;;;;;;10.60;4.63;;;;;;;;;;4877739;29;20040;-85
2022/02/26 02:43:12;;;;;;;12.00;4.43;;;;;;;;;;4875882;29;20048;-92
2022/02/26 02:45:39;;;;;;;12.30;4.65;;;;;;;;;;4876171;29;20037;-85
2022/02/26 02:48:05;;;;;;;11.98;4.55;;;;;;;;;;4879410;29;20064;-84
2022/02/26 02:50:30;;;;;;;7.85;4.30;;;;;;;;;;4888255;29;20123;-84
2022/02/26 02:52:56;;;;;;;9.70;4.63;;;;;;;;;;4875947;29;20551;-92
2022/02/26 02:55:22;;;;;;;14.10;5.07;;;;;;;;;;4867671;29;20047;-84
2022/02/26 02:57:50;;;;;;;12.00;4.85;;;;;;;;;;4874130;29;20082;-92
2022/02/26 03:00:16;;;;;;;12.93;5.05;;;;;;;;;;4879741;29;20057;-83
2022/02/26 03:02:43;;;;;;;13.57;5.68;;;;;;;;;;4882766;29;20386;-85
2022/02/26 03:05:09;;;;;;;13.15;5.40;;;;;;;;;;4878083;29;20032;-84
2022/02/26 03:07:35;;;;;;;9.02;4.97;;;;;;;;;;4876185;29;20021;-90
2022/02/26 03:10:01;;;;;;;10.43;5.18;;;;;;;;;;4883771;29;20029;-84
2022/02/26 03:12:26;;;;;;;13.05;5.35;;;;;;;;;;4880875;29;20029;-84
2022/02/26 03:14:52;;;;;;;9.75;5.03;;;;;;;;;;4881048;29;20415;-84
2022/02/26 03:17:17;;;;;;;12.32;5.28;;;;;;;;;;4881216;29;20068;-90
2022/02/26 03:19:47;;;;;;;11.40;5.13;;;;;;;;;;4884675;29;20067;-93
2022/02/26 03:22:12;;;;;;;12.05;5.22;;;;;;;;;;4885640;29;20081;-85
2022/02/26 03:24:38;;;;;;;14.93;6.13;;;;;;;;;;4884798;29;20045;-93
2022/02/26 03:27:03;;;;;;;13.82;5.63;;;;;;;;;;4876163;29;20124;-85
2022/02/26 03:29:29;;;;;;;12.65;5.82;;;;;;;;;;4878187;29;20041;-85
2022/02/26 03:31:55;;;;;;;15.38;6.25;;;;;;;;;;4898817;29;20029;-84
2022/02/26 03:34:21;;;;;;;14.02;6.50;;;;;;;;;;4877091;29;20479;-84
2022/02/26 03:36:51;;;;;;;11.98;5.80;;;;;;;;;;4881800;29;20029;-90
2022/02/26 03:39:17;;;;;;;13.85;6.53;;;;;;;;;;4885103;29;20029;-84
2022/02/26 03:41:42;;;;;;;14.20;7.53;;;;;;;;;;4875607;29;21672;-92
2022/02/26 03:44:08;;;;;;;15.13;6.63;;;;;;;;;;4882504;29;20040;-84
2022/02/26 03:46:34;;;;;;;14.45;7.13;;;;;;;;;;4876566;29;20054;-84
2022/02/26 03:49:00;;;;;;;14.85;6.78;;;;;;;;;;4880580;29;20546;-84
2022/02/26 03:51:25;;;;;;;13.70;7.13;;;;;;;;;;4877372;29;20029;-90
2022/02/26 03:53:51;;;;;;;10.95;7.03;;;;;;;;;;4878234;29;20060;-92
2022/02/26 03:56:16;;;;;;;16.08;7.30;;;;;;;;;;4883004;29;20395;-84
2022/02/26 03:58:42;;;;;;;14.98;6.93;;;;;;;;;;4880326;29;20039;-84
2022/02/26 04:01:07;;;;;;;13.95;7.10;;;;;;;;;;4878810;29;20583;-84
2022/02/26 04:03:32;;;;;;;15.65;7.30;;;;;;;;;;4881226;29;20041;-93
2022/02/26 04:05:58;;;;;;;17.38;7.47;;;;;;;;;;4886654;29;20124;-84
2022/02/26 04:08:23;;;;;;;16.45;6.75;;;;;;;;;;4884226;29;20107;-90
2022/02/26 04:10:48;;;;;;;14.95;7.60;;;;;;;;;;4876360;29;20033;-91
2022/02/26 04:13:14;;;;;;;12.20;7.10;;;;;;;;;;4887764;29;20021;-92
2022/02/26 04:15:39;;;;;;;11.40;6.68;;;;;;;;;;4880318;29;20033;-84
2022/02/26 04:18:04;;;;;;;14.13;6.95;;;;;;;;;;4880207;29;20040;-94
2022/02/26 04:20:30;;;;;;;16.10;7.28;;;;;;;;;;4875141;29;20431;-89
2022/02/26 04:22:55;;;;;;;14.48;7.45;;;;;;;;;;4885904;29;20451;-84
2022/02/26 04:25:20;;;;;;;14.73;7.20;;;;;;;;;;4883430;29;20044;-84
2022/02/26 04:27:46;;;;;;;17.98;7.85;;;;;;;;;;4884502;29;20032;-92
2022/02/26 04:30:12;;;;;;;12.98;6.82;;;;;;;;;;4890078;29;20029;-85
2022/02/26 04:32:39;;;;;;;14.38;6.95;;;;;;;;;;4880406;29;20036;-87
2022/02/26 04:35:05;;;;;;;19.40;8.13;;;;;;;;;;4897208;29;20049;-84
2022/02/26 04:37:31;;;;;;;15.95;7.97;;;;;;;;;;4878610;29;20043;-90
2022/02/26 04:39:56;;;;;;;14.35;7.05;;;;;;;;;;4882584;29;20029;-93
2022/02/26 04:42:22;;;;;;;16.00;7.75;;;;;;;;;;4877588;29;20490;-92
2022/02/26 04:44:47;;;;;;;13.30;7.47;;;;;;;;;;4879994;29;20032;-84
2022/02/26 04:47:13;;;;;;;16.60;7.88;;;;;;;;;;4873284;29;20884;-84
2022/02/26 04:49:40;;;;;;;16.42;8.02;;;;;;;;;;4876488;29;20416;-84
2022/02/26 04:52:06;;;;;;;13.13;7.65;;;;;;;;;;4881107;29;20032;-85
2022/02/26 04:54:33;;;;;;;13.55;7.40;;;;;;;;;;4876229;29;20024;-83
2022/02/26 04:56:58;;;;;;;15.15;7.82;;;;;;;;;;4875857;29;20030;-85
2022/02/26 04:59:23;;;;;;;13.85;7.30;;;;;;;;;;4880569;29;20486;-90
2022/02/26 05:01:49;;;;;;;16.23;7.75;;;;;;;;;;4885425;29;20028;-90
2022/02/26 05:04:14;;;;;;;14.43;8.15;;;;;;;;;;4877101;29;20041;-85
2022/02/26 05:06:39;;;;;;;18.33;7.72;;;;;;;;;;4886459;29;20111;-85
2022/02/26 05:09:05;;;;;;;17.00;8.05;;;;;;;;;;4875576;29;20036;-90
2022/02/26 05:11:31;;;;;;;16.75;7.47;;;;;;;;;;4882285;29;20021;-90
2022/02/26 05:13:56;;;;;;;15.32;7.78;;;;;;;;;;4880803;29;20027;-91
2022/02/26 05:16:21;;;;;;;14.55;7.45;;;;;;;;;;4878441;29;20112;-84
2022/02/26 05:18:47;;;;;;;12.48;7.90;;;;;;;;;;4880458;29;20104;-91
2022/02/26 05:21:12;;;;;;;14.23;7.57;;;;;;;;;;4877701;29;20044;-89
2022/02/26 05:23:41;;;;;;;14.65;7.80;;;;;;;;;;4879031;29;20025;-92
2022/02/26 05:26:11;;;;;;;16.13;8.73;;;;;;;;;;4877309;29;20081;-91
2022/02/26 05:28:36;;;;;;;12.73;7.70;;;;;;;;;;4874455;29;20032;-84
2022/02/26 05:31:02;;;;;;;19.33;8.32;;;;;;;;;;4873019;29;20491;-93
2022/02/26 05:33:28;;;;;;;11.23;7.40;;;;;;;;;;4876175;29;20029;-84
2022/02/26 05:35:53;;;;;;;18.20;8.07;;;;;;;;;;4876952;29;20131;-92
2022/02/26 05:38:19;;;;;;;18.42;7.88;;;;;;;;;;4880201;29;20045;-85
2022/02/26 05:40:44;;;;;;;16.98;8.07;;;;;;;;;;4876698;29;20557;-84
2022/02/26 05:43:09;;;;;;;12.27;7.05;;;;;;;;;;4877765;29;21049;-84
2022/02/26 05:45:35;;;;;;;15.40;8.15;;;;;;;;;;4876579;29;20064;-85
2022/02/26 05:48:00;;;;;;;15.25;8.43;;;;;;;;;;4874480;29;20542;-93
2022/02/26 05:50:26;;;;;;;15.90;7.90;;;;;;;;;;4876542;29;20089;-84
2022/02/26 05:52:51;;;;;;;13.35;8.18;;;;;;;;;;4879460;29;20025;-84
2022/02/26 05:55:16;;;;;;;14.73;7.90;;;;;;;;;;4876311;29;20095;-89
2022/02/26 05:57:42;;;;;;;14.35;8.43;;;;;;;;;;4875694;29;20037;-85
2022/02/26 06:00:09;;;;;;;15.93;8.13;;;;;;;;;;4873338;29;20040;-90
2022/02/26 06:02:34;;;;;;;17.70;8.52;;;;;;;;;;4871469;29;20028;-86
2022/02/26 06:05:00;;;;;;;14.93;7.93;;;;;;;;;;4873883;29;20048;-89
2022/02/26 06:07:25;;;;;;;16.33;8.10;;;;;;;;;;4880743;29;20033;-93
2022/02/26 06:09:50;;;;;;;14.25;8.07;;;;;;;;;;4881430;29;20028;-91
2022/02/26 06:12:16;;;;;;;13.40;7.25;;;;;;;;;;4887643;29;20119;-90
2022/02/26 06:14:41;;;;;;;14.77;8.18;;;;;;;;;;4874985;29;20070;-90
2022/02/26 06:17:06;;;;;;;14.65;7.13;;;;;;;;;;4876991;29;20025;-84
2022/02/26 06:19:32;;;;;;;17.20;8.32;;;;;;;;;;4876118;29;20486;-89
2022/02/26 06:21:57;;;;;;;15.88;7.82;;;;;;;;;;4873715;29;20029;-86
2022/02/26 06:24:22;;;;;;;14.95;8.13;;;;;;;;;;4878094;29;20500;-92
2022/02/26 06:26:48;;;;;;;14.90;7.88;;;;;;;;;;4873997;29;22264;-84
2022/02/26 06:29:13;;;;;;;15.82;7.70;;;;;;;;;;4876583;29;20037;-90
2022/02/26 06:31:39;;;;;;;14.02;7.38;;;;;;;;;;4881414;29;20112;-93
2022/02/26 06:34:04;;;;;;;15.00;7.70;;;;;;;;;;4874429;29;20111;-83
2022/02/26 06:36:31;;;;;;;16.20;7.78;;;;;;;;;;4873544;29;20068;-90
2022/02/26 06:38:56;;;;;;;15.60;8.13;;;;;;;;;;4874924;29;20064;-85
2022/02/26 06:41:22;;;;;;;14.70;8.15;;;;;;;;;;4874666;29;20068;-90
2022/02/26 06:43:47;;;;;;;13.70;7.47;;;;;;;;;;4879063;29;20045;-84
2022/02/26 06:46:13;;;;;;;13.60;7.35;;;;;;;;;;4873439;29;20044;-92
2022/02/26 06:48:39;;;;;;;14.65;7.80;;;;;;;;;;4878588;29;20446;-94
2022/02/26 06:51:05;;;;;;;14.00;7.65;;;;;;;;;;4879684;29;20036;-85
2022/02/26 06:53:30;;;;;;;13.00;7.45;;;;;;;;;;4881520;29;20036;-92
2022/02/26 06:55:56;;;;;;;14.23;8.05;;;;;;;;;;4887192;29;20027;-84
2022/02/26 06:58:21;;;;;;;16.35;7.35;;;;;;;;;;4884426;29;20046;-90
2022/02/26 07:00:47;;;;;;;17.92;8.52;;;;;;;;;;4881326;29;20025;-89
2022/02/26 07:03:12;;;;;;;11.55;8.10;;;;;;;;;;4878315;29;20071;-91
2022/02/26 07:05:37;;;;;;;14.20;8.23;;;;;;;;;;4878881;29;20113;-84
2022/02/26 07:08:03;;;;;;;15.77;8.35;;;;;;;;;;4885074;29;20032;-84
2022/02/26 07:10:29;;;;;;;17.77;8.00;;;;;;;;;;4879691;29;20037;-83
2022/02/26 07:12:54;;;;;;;18.80;8.52;;;;;;;;;;4877900;29;20037;-90
2022/02/26 07:15:19;;;;;;;15.15;8.55;;;;;;;;;;4878987;29;20033;-94
2022/02/26 07:17:45;;;;;;;15.60;8.35;;;;;;;;;;4878212;29;20029;-83
2022/02/26 07:20:11;;;;;;;16.90;9.18;;;;;;;;;;4879327;29;20116;-84
2022/02/26 07:22:38;;;;;;;14.75;8.20;;;;;;;;;;4894382;29;20037;-93
2022/02/26 07:25:04;;;;;;;16.25;9.60;;;;;;;;;;4879668;29;20040;-93
2022/02/26 07:27:29;;;;;;;17.30;8.35;;;;;;;;;;4878841;29;20021;-89
2022/02/26 07:29:54;;;;;;;17.67;9.05;;;;;;;;;;4881466;29;20033;-84
2022/02/26 07:32:20;;;;;;;14.75;8.23;;;;;;;;;;4875666;29;20029;-90
2022/02/26 07:34:45;;;;;;;13.35;8.48;;;;;;;;;;4880140;29;20044;-84
2022/02/26 07:37:11;;;;;;;18.55;9.35;;;;;;;;;;4878619;29;20121;-93
2022/02/26 07:39:36;;;;;;;16.58;8.70;;;;;;;;;;4877999;29;20025;-84
2022/02/26 07:42:02;;;;;;;18.90;9.23;;;;;;;;;;4877174;29;20037;-92
2022/02/26 07:44:27;;;;;;;17.00;9.05;;;;;;;;;;4872519;29;20037;-89
2022/02/26 07:46:52;;;;;;;16.52;8.80;;;;;;;;;;4884834;29;20489;-89
2022/02/26 07:49:18;;;;;;;18.35;9.45;;;;;;;;;;4879901;29;20672;-85
2022/02/26 07:51:43;;;;;;;20.52;9.75;;;;;;;;;;4876677;29;20028;-82
2022/02/26 07:54:09;;;;;;;15.38;8.95;;;;;;;;;;4880026;29;20525;-84
2022/02/26 07:56:35;;;;;;;14.13;8.88;;;;;;;;;;4880376;29;20700;-91
2022/02/26 07:59:00;;;;;;;16.25;9.93;;;;;;;;;;4883581;29;20088;-83
2022/02/26 08:01:27;;;;;;;16.00;9.68;;;;;;;;;;4890132;29;20071;-92
2022/02/26 08:03:53;;;;;;;22.17;10.55;;;;;;;;;;4883926;29;20055;-91
2022/02/26 08:06:18;;;;;;;17.17;9.95;;;;;;;;;;4881150;29;20033;-89
2022/02/26 08:08:44;;;;;;;20.20;10.85;;;;;;;;;;4884036;29;20389;-84
2022/02/26 08:11:09;;;;;;;21.50;11.27;;;;;;;;;;4889830;29;20033;-84
2022/02/26 08:13:34;;;;;;;15.88;10.18;;;;;;;;;;4875681;29;20081;-84
2022/02/26 08:16:00;;;;;;;20.55;11.98;;;;;;;;;;4884050;29;20081;-84
2022/02/26 08:18:25;;;;;;;19.65;11.75;;;;;;;;;;4881950;29;20033;-84
2022/02/26 08:20:50;;;;;;;25.08;13.02;;;;;;;;;;4883120;29;20486;-83
2022/02/26 08:23:16;;;;;;;19.08;12.45;;;;;;;;;;4889554;29;20765;-83
2022/02/26 08:25:41;;;;;;;25.10;12.68;;;;;;;;;;4880490;29;20036;-83
2022/02/26 08:28:07;;;;;;;20.30;12.55;;;;;;;;;;4880517;29;20037;-83
2022/02/26 08:30:32;;;;;;;22.00;13.60;;;;;;;;;;4885611;29;20029;-84
2022/02/26 08:32:58;;;;;;;21.73;13.25;;;;;;;;;;4875880;29;20037;-83
2022/02/26 08:35:25;;;;;;;22.52;13.68;;;;;;;;;;4871174;29;20136;-89
2022/02/26 08:37:51;;;;;;;22.70;13.25;;;;;;;;;;4870832;29;20033;-84
2022/02/26 08:40:17;;;;;;;24.38;13.90;;;;;;;;;;4889429;29;20112;-91
2022/02/26 08:42:44;;;;;;;24.17;13.57;;;;;;;;;;4881299;29;20094;-84
2022/02/26 08:45:10;;;;;;;20.73;13.60;;;;;;;;;;4878600;29;20037;-88
2022/02/26 08:47:35;;;;;;;21.80;13.93;;;;;;;;;;4880544;29;20055;-84
2022/02/26 08:50:03;;;;;;;23.88;13.57;;;;;;;;;;4871471;29;20071;-83
2022/02/26 08:52:29;;;;;;;24.65;13.65;;;;;;;;;;4875678;29;20028;-89
2022/02/26 08:54:54;;;;;;;23.75;13.77;;;;;;;;;;4878121;29;20076;-89
2022/02/26 08:57:19;;;;;;;21.70;13.23;;;;;;;;;;4883894;29;20032;-83
2022/02/26 08:59:46;;;;;;;25.38;14.88;;;;;;;;;;4885892;29;20029;-85
2022/02/26 09:02:12;;;;;;;24.48;14.07;;;;;;;;;;4878675;29;20033;-83
2022/02/26 09:04:37;;;;;;;19.50;12.88;;;;;;;;;;4881984;29;20089;-85
2022/02/26 09:07:04;;;;;;;24.23;14.20;;;;;;;;;;4874564;29;20044;-83
2022/02/26 09:09:29;;;;;;;21.50;15.65;;;;;;;;;;4889907;29;20036;-88
2022/02/26 09:11:55;;;;;;;25.88;16.42;;;;;;;;;;4883461;29;20041;-85
2022/02/26 09:14:21;;;;;;;24.67;14.80;;;;;;;;;;4888895;29;20063;-84
2022/02/26 09:16:46;;;;;;;25.75;16.27;;;;;;;;;;4887696;29;20033;-84
2022/02/26 09:19:12;;;;;;;21.33;14.13;;;;;;;;;;4892288;29;20028;-83
2022/02/26 09:21:37;;;;;;;26.65;16.73;;;;;;;;;;4885892;29;20021;-91
2022/02/26 09:24:03;;;;;;;33.30;16.17;;;;;;;;;;4893208;29;20540;-83
2022/02/26 09:26:29;;;;;;;26.35;15.73;;;;;;;;;;4881992;29;20024;-88
2022/02/26 09:28:54;;;;;;;25.17;14.25;;;;;;;;;;4890957;29;20461;-92
2022/02/26 09:31:20;;;;;;;21.60;13.70;;;;;;;;;;4891118;29;20507;-84
2022/02/26 09:33:46;;;;;;;25.73;13.68;;;;;;;;;;4880469;29;20033;-88
2022/02/26 09:36:11;;;;;;;25.63;13.02;;;;;;;;;;4890905;29;20131;-84
2022/02/26 09:38:39;;;;;;;18.00;11.82;;;;;;;;;;4881436;29;20112;-83
2022/02/26 09:41:05;;;;;;;25.20;13.13;;;;;;;;;;4874621;29;20591;-83
2022/02/26 09:43:32;;;;;;;19.48;11.95;;;;;;;;;;4876763;29;20025;-91
2022/02/26 09:45:59;;;;;;;19.42;11.52;;;;;;;;;;4880719;29;20037;-84
2022/02/26 09:48:26;;;;;;;25.30;11.43;;;;;;;;;;4885324;29;20450;-83
2022/02/26 09:50:51;;;;;;;18.38;10.25;;;;;;;;;;4880958;29;20029;-87
2022/02/26 09:53:19;;;;;;;20.00;9.18;;;;;;;;;;4881014;29;20036;-84
2022/02/26 09:55:45;;;;;;;22.25;9.52;;;;;;;;;;4883059;29;20039;-83
2022/02/26 09:58:14;;;;;;;25.25;10.95;;;;;;;;;;4886511;29;20089;-83
2022/02/26 10:00:40;;;;;;;20.63;10.23;;;;;;;;;;4876341;29;20041;-83
2022/02/26 10:03:05;;;;;;;18.17;8.77;;;;;;;;;;4873726;29;20035;-88
2022/02/26 10:05:32;;;;;;;19.48;7.97;;;;;;;;;;4879287;29;20060;-83
2022/02/26 10:07:57;;;;;;;15.55;6.47;;;;;;;;;;4888813;29;20084;-89
2022/02/26 10:10:28;;;;;;;19.27;8.80;;;;;;;;;;4878078;29;20481;-88
2022/02/26 10:12:56;;;;;;;15.20;5.78;;;;;;;;;;4863587;29;20490;-90
2022/02/26 10:15:35;;;;;;;14.65;5.05;;;;;;;;;;4878874;29;20064;-88
2022/02/26 10:18:03;;;;;;;21.48;7.80;;;;;;;;;;4876531;29;20033;-83
2022/02/26 10:20:29;;;;;;;23.08;9.30;;;;;;;;;;4888163;29;20539;-83
2022/02/26 10:22:56;;;;;;;18.70;7.00;;;;;;;;;;4875418;29;20097;-89
2022/02/26 10:25:26;;;;;;;21.80;7.80;;;;;;;;;;4875759;29;20136;-85
2022/02/26 10:27:58;;;;;;;16.17;6.55;;;;;;;;;;4892142;29;20021;-88
2022/02/26 10:30:29;;;;;;;20.10;8.33;;;;;;;;;;4880921;29;20033;-83
2022/02/26 10:33:25;;;;;;;17.75;7.13;;;;;;;;;;4888622;29;20021;-94
2022/02/26 10:35:54;;;;;;;11.70;4.20;;;;;;;;;;4875954;29;20085;-83
2022/02/26 10:38:27;;;;;;;14.55;5.40;;;;;;;;;;4880188;29;20036;-83
2022/02/26 10:40:54;;;;;;;;;;;;;;;;;;4882837;29;20036;-83
2022/02/26 10:43:39;;;;;;;17.10;7.35;;;;;;;;;;4867325;29;19922;-90
2022/02/26 10:46:20;;;;;;;15.45;6.38;;;;;;;;;;4881360;29;20025;-84
2022/02/26 10:48:46;;;;;;;19.73;6.60;;;;;;;;;;4876402;29;20540;-89
2022/02/26 10:51:16;;;;;;;8.65;3.70;;;;;;;;;;4876564;29;20025;-89
2022/02/26 10:53:42;;;;;;;11.95;4.13;;;;;;;;;;4880909;29;20029;-83
2022/02/26 10:56:09;;;;;;;19.70;5.90;;;;;;;;;;4875600;29;20440;-90
2022/02/26 10:58:35;;;;;;;15.35;4.97;;;;;;;;;;4880015;29;20421;-86
2022/02/26 11:01:10;;;;;;;19.75;7.10;;;;;;;;;;4885711;29;20041;-83
2022/02/26 11:03:35;;;;;;;11.95;6.35;;;;;;;;;;4882243;29;20089;-83
2022/02/26 11:06:03;;;;;;;14.85;7.72;;;;;;;;;;4877078;29;20045;-84
2022/02/26 11:08:29;;;;;;;20.25;7.60;;;;;;;;;;4880119;29;20033;-84
2022/02/26 11:10:55;;;;;;;18.15;6.78;;;;;;;;;;4883114;29;20161;-85
2022/02/26 11:13:21;;;;;;;10.93;5.00;;;;;;;;;;4879925;29;20439;-89
2022/02/26 11:15:50;;;;;;;12.40;4.45;;;;;;;;;;4884630;29;20036;-83
2022/02/26 11:18:19;;;;;;;13.48;4.15;;;;;;;;;;4909608;29;20051;-85
2022/02/26 11:20:46;;;;;;;15.20;5.15;;;;;;;;;;4890792;29;20037;-93
2022/02/26 11:23:13;;;;;;;12.05;4.85;;;;;;;;;;4888280;29;20028;-90
2022/02/26 11:25:39;;;;;;;11.93;4.85;;;;;;;;;;4884917;29;20032;-84
2022/02/26 11:28:11;;;;;;;12.07;4.85;;;;;;;;;;4881105;29;20032;-86
2022/02/26 11:30:51;;;;;;;19.50;5.45;;;;;;;;;;4885160;29;20063;-85
2022/02/26 11:33:17;;;;;;;12.35;4.47;;;;;;;;;;4878114;29;20439;-93
2022/02/26 11:35:56;;;;;;;16.48;4.88;;;;;;;;;;4883529;29;20058;-84
2022/02/26 11:38:23;;;;;;;13.75;5.20;;;;;;;;;;4881031;29;20040;-85
2022/02/26 11:40:50;;;;;;;16.02;5.95;;;;;;;;;;4876490;29;20037;-92
2022/02/26 11:43:36;;;;;;;15.18;6.00;;;;;;;;;;4879037;29;20037;-89
2022/02/26 11:46:17;;;;;;;17.80;5.55;;;;;;;;;;4881134;29;20085;-94
2022/02/26 11:48:43;;;;;;;12.13;5.07;;;;;;;;;;4880988;29;20115;-92
2022/02/26 11:51:14;;;;;;;14.65;5.90;;;;;;;;;;4885443;29;20590;-91
2022/02/26 11:53:42;;;;;;;13.13;5.38;;;;;;;;;;4881654;29;20505;-89
2022/02/26 11:56:08;;;;;;;17.02;5.55;;;;;;;;;;4887794;29;20478;-84
2022/02/26 11:58:34;;;;;;;10.48;4.80;;;;;;;;;;4881076;29;20033;-91
2022/02/26 12:01:05;;;;;;;12.70;4.53;;;;;;;;;;4884211;29;20442;-91
2022/02/26 12:03:49;;;;;;;17.23;5.47;;;;;;;;;;4895346;29;20092;-94
2022/02/26 12:06:16;;;;;;;11.70;4.50;;;;;;;;;;4893218;29;20027;-91
2022/02/26 12:08:49;;;;;;;11.82;4.18;;;;;;;;;;4881909;29;20474;-84
2022/02/26 12:11:21;;;;;;;13.65;4.45;;;;;;;;;;4882069;29;20397;-92
2022/02/26 12:13:58;;;;;;;15.15;4.43;;;;;;;;;;4898161;29;20032;-85
2022/02/26 12:16:28;;;;;;;12.35;4.47;;;;;;;;;;4889631;29;20029;-84
2022/02/26 12:19:01;;;;;;;12.00;4.68;;;;;;;;;;4884515;29;20545;-85
2022/02/26 12:21:31;;;;;;;11.43;4.10;;;;;;;;;;4887850;29;20561;-94
2022/02/26 12:24:11;;;;;;;11.50;3.75;;;;;;;;;;4883397;29;20056;-91
2022/02/26 12:26:58;;;;;;;10.35;3.60;;;;;;;;;;4877831;29;20048;-93
2022/02/26 12:29:26;;;;;;;14.55;3.80;;;;;;;;;;4886525;29;20123;-85
2022/02/26 12:32:06;;;;;;;14.05;4.75;;;;;;;;;;4883140;29;20041;-85
2022/02/26 12:34:39;;;;;;;11.90;4.43;;;;;;;;;;4880036;29;20029;-91
2022/02/26 12:37:10;;;;;;;9.95;4.32;;;;;;;;;;4875620;29;20039;-85
2022/02/26 12:40:04;;;;;;;12.38;4.15;;;;;;;;;;4882913;29;20037;-93
2022/02/26 12:42:34;;;;;;;10.25;4.18;;;;;;;;;;4868198;29;20053;-85
2022/02/26 12:45:04;;;;;;;12.13;4.30;;;;;;;;;;4877794;29;20033;-85
2022/02/26 12:47:30;;;;;;;11.55;4.60;;;;;;;;;;4871067;29;20051;-88
2022/02/26 12:49:56;;;;;;;13.30;5.30;;;;;;;;;;4878556;29;20029;-88
2022/02/26 12:52:22;;;;;;;10.70;4.95;;;;;;;;;;4874475;29;21343;-85
2022/02/26 12:54:48;;;;;;;8.95;4.47;;;;;;;;;;4880567;29;20028;-85
2022/02/26 12:57:15;;;;;;;11.82;4.70;;;;;;;;;;4876300;29;20116;-86
2022/02/26 12:59:42;;;;;;;14.55;5.43;;;;;;;;;;4882242;29;20025;-84
2022/02/26 13:02:10;;;;;;;14.73;5.15;;;;;;;;;;4888245;29;20036;-87
2022/02/26 13:04:42;;;;;;;14.70;5.65;;;;;;;;;;4885902;29;20065;-85
2022/02/26 13:07:15;;;;;;;14.75;6.47;;;;;;;;;;4884411;29;20058;-85
2022/02/26 13:09:52;;;;;;;18.15;8.07;;;;;;;;;;4876351;29;20031;-94
2022/02/26 13:12:28;;;;;;;15.23;8.52;;;;;;;;;;4879464;29;20037;-89
2022/02/26 13:15:12;;;;;;;18.70;8.50;;;;;;;;;;4879676;29;20084;-84
2022/02/26 13:17:39;;;;;;;20.65;8.82;;;;;;;;;;4879598;29;20029;-85
2022/02/26 13:20:14;;;;;;;22.10;8.88;;;;;;;;;;4881561;29;20067;-84
2022/02/26 13:22:47;;;;;;;24.50;8.50;;;;;;;;;;4877930;29;20494;-90
2022/02/26 13:25:15;;;;;;;17.27;8.05;;;;;;;;;;4888628;29;20032;-84
2022/02/26 13:27:41;;;;;;;18.10;8.15;;;;;;;;;;4890401;29;20025;-89
2022/02/26 13:30:08;;;;;;;22.27;9.10;;;;;;;;;;4893370;29;20032;-94
2022/02/26 13:32:41;;;;;;;17.88;8.25;;;;;;;;;;4880978;29;20029;-90
2022/02/26 13:35:07;;;;;;;;;;;;;;;;;;4890839;29;20056;-85
2022/02/26 13:37:34;;;;;;;16.88;8.77;;;;;;;;;;4909288;29;19922;-84
2022/02/26 13:39:59;;;;;;;19.20;9.07;;;;;;;;;;4891756;29;20032;-88
2022/02/26 13:42:33;;;;;;;21.98;8.85;;;;;;;;;;4881839;29;20044;-90
2022/02/26 13:45:15;;;;;;;23.08;8.75;;;;;;;;;;4901319;29;20036;-85
2022/02/26 13:47:44;;;;;;;21.73;8.70;;;;;;;;;;4890232;29;20024;-84
2022/02/26 13:50:10;;;;;;;19.73;8.30;;;;;;;;;;4889311;29;20060;-85
2022/02/26 13:52:38;;;;;;;17.05;7.63;;;;;;;;;;4889594;29;20028;-85
2022/02/26 13:55:06;;;;;;;18.83;8.05;;;;;;;;;;4889650;29;20036;-90
2022/02/26 13:57:37;;;;;;;22.10;8.18;;;;;;;;;;4890237;29;20028;-84
2022/02/26 14:00:14;;;;;;;20.13;8.60;;;;;;;;;;4888996;29;20036;-91
2022/02/26 14:02:57;;;;;;;20.02;8.15;;;;;;;;;;4892913;29;20375;-84
2022/02/26 14:05:25;;;;;;;18.17;8.38;;;;;;;;;;4902521;29;20032;-87
2022/02/26 14:07:51;;;;;;;26.10;8.93;;;;;;;;;;4892192;29;20482;-86
2022/02/26 14:10:17;;;;;;;17.70;8.98;;;;;;;;;;4891442;29;20031;-85
2022/02/26 14:12:48;;;;;;;23.10;10.10;;;;;;;;;;4887191;29;20016;-84
2022/02/26 14:15:14;;;;;;;22.35;9.32;;;;;;;;;;4889234;29;20035;-85
2022/02/26 14:17:42;;;;;;;22.08;9.00;;;;;;;;;;4895789;29;20379;-93
2022/02/26 14:20:11;;;;;;;22.35;9.25;;;;;;;;;;4893472;29;20032;-86
2022/02/26 14:22:37;;;;;;;20.90;9.45;;;;;;;;;;4894503;29;20020;-86
2022/02/26 14:25:08;;;;;;;19.40;8.68;;;;;;;;;;4892229;29;20029;-86
2022/02/26 14:27:47;;;;;;;20.17;8.45;;;;;;;;;;4880056;29;20057;-90
2022/02/26 14:30:16;;;;;;;20.40;8.05;;;;;;;;;;4905771;29;20478;-84